KHLR/HLR METAR and TAF weather

Enter ICAO airport designator
Station Type Date Time Source
KHLR METAR 2022/01/18 06:58 UTC NOAA

KHLR 180658Z AUTO 18004KT 10SM CLR 09/M05 A3002 RMK AO2 SLP164 T00901046


Station Type Date Time Source
KHLR Decoded METAR 2022/01/18 06:58 UTC NOAA

Fort Hood, Hood AAF Ft Hood, TX, United States (KHLR) 31-08N 097-42W
Jan 18, 2022 - 01:58 AM EST / 2022.01.18 0658 UTC
Wind: from the S (180 degrees) at 5 MPH (4 KT):0
Visibility: 10 mile(s):0
Sky conditions: clear
Temperature: 48.2 F (9.0 C)
Dew Point: 23.7 F (-4.6 C)
Relative Humidity: 37%
Pressure (altimeter): 30.02 in. Hg (1016 hPa)
ob: KHLR 180658Z AUTO 18004KT 10SM CLR 09/M05 A3002 RMK AO2 SLP164 T00901046
cycle: 7

Station Type Date Time Source
KHLR TAF UTC NOAA

Error!

Example: see airport list